createdAt,value
2018-08-03T00:03:13.308Z,23.60
2018-08-03T00:05:41.395Z,23.60
2018-08-03T00:08:09.527Z,23.60
2018-08-03T00:10:37.685Z,23.60
2018-08-03T00:13:05.910Z,23.50
2018-08-03T00:15:34.060Z,23.50
2018-08-03T00:18:03.165Z,23.50
2018-08-03T00:20:31.305Z,23.40
2018-08-03T00:22:59.651Z,23.50
2018-08-03T00:27:55.810Z,23.40
2018-08-03T00:30:24.000Z,23.40
2018-08-03T00:32:52.611Z,23.40
2018-08-03T00:35:20.813Z,23.40
2018-08-03T00:37:49.091Z,23.30
2018-08-03T00:40:18.113Z,23.30
2018-08-03T00:45:14.127Z,23.20
2018-08-03T00:47:42.244Z,23.20
2018-08-03T00:50:10.402Z,23.20
2018-08-03T00:52:38.715Z,23.20
2018-08-03T00:55:07.022Z,23.20
2018-08-03T00:57:35.303Z,23.20
2018-08-03T01:00:03.457Z,23.20
2018-08-03T01:02:31.681Z,23.20
2018-08-03T01:04:59.813Z,23.20
2018-08-03T01:07:28.157Z,23.10
2018-08-03T01:09:56.387Z,23.10
2018-08-03T01:12:24.720Z,23.10
2018-08-03T01:14:52.909Z,23.10
2018-08-03T01:17:21.197Z,23.00
2018-08-03T01:19:49.517Z,23.00
2018-08-03T01:22:17.653Z,23.00
2018-08-03T01:24:45.843Z,23.00
2018-08-03T01:29:41.957Z,23.00
2018-08-03T01:32:10.075Z,23.00
2018-08-03T01:34:38.235Z,23.00
2018-08-03T01:37:06.530Z,23.00
2018-08-03T01:39:34.701Z,23.00
2018-08-03T01:44:30.927Z,23.00
2018-08-03T01:47:00.472Z,23.10
2018-08-03T01:51:56.714Z,23.20
2018-08-03T01:54:24.875Z,23.20
2018-08-03T01:56:53.005Z,23.20
2018-08-03T01:59:21.144Z,23.30
2018-08-03T02:01:49.417Z,23.30
2018-08-03T02:04:17.699Z,23.30
2018-08-03T02:06:46.015Z,23.30
2018-08-03T02:14:10.631Z,23.20
2018-08-03T02:16:38.776Z,23.20
2018-08-03T02:19:06.909Z,23.30
2018-08-03T02:21:35.070Z,23.30
2018-08-03T02:24:03.193Z,23.30
2018-08-03T02:26:31.284Z,23.30
2018-08-03T02:28:59.413Z,23.40
2018-08-03T02:31:27.555Z,23.40
2018-08-03T02:33:55.733Z,23.40
2018-08-03T02:36:23.935Z,23.40
2018-08-03T02:38:52.125Z,23.30
2018-08-03T02:41:20.296Z,23.30
2018-08-03T02:43:48.689Z,23.30
2018-08-03T02:46:16.855Z,23.30
2018-08-03T02:48:45.237Z,23.30
2018-08-03T02:51:13.429Z,23.30
2018-08-03T02:53:41.631Z,23.30
2018-08-03T02:56:09.795Z,23.30
2018-08-03T02:58:37.968Z,23.30
2018-08-03T03:01:06.096Z,23.40
2018-08-03T03:03:34.347Z,23.40
2018-08-03T03:06:02.451Z,23.40
2018-08-03T03:08:30.569Z,23.40
2018-08-03T03:13:26.693Z,23.40
2018-08-03T03:15:55.825Z,23.40
2018-08-03T03:18:23.983Z,23.40
2018-08-03T03:20:52.107Z,23.40
2018-08-03T03:23:20.261Z,23.40
2018-08-03T03:25:48.351Z,23.30
2018-08-03T03:28:16.489Z,23.30
2018-08-03T03:33:12.694Z,23.30
2018-08-03T03:35:40.871Z,23.30
2018-08-03T03:38:09.351Z,23.30
2018-08-03T03:40:37.463Z,23.30
2018-08-03T03:43:05.591Z,23.40
2018-08-03T03:45:33.917Z,23.40
2018-08-03T03:48:01.991Z,23.40
2018-08-03T03:50:30.085Z,23.40
2018-08-03T03:52:58.257Z,23.40
2018-08-03T03:55:26.401Z,23.40
2018-08-03T03:57:54.563Z,23.40
2018-08-03T04:00:22.796Z,23.40
2018-08-03T04:02:50.913Z,23.40
2018-08-03T04:05:20.000Z,23.40
2018-08-03T04:10:16.093Z,23.40
2018-08-03T04:12:44.271Z,23.40
2018-08-03T04:15:12.397Z,23.40
2018-08-03T04:17:40.505Z,23.40
2018-08-03T04:20:08.601Z,23.40
2018-08-03T04:22:36.975Z,23.40
2018-08-03T04:25:05.501Z,23.30
2018-08-03T04:27:34.167Z,23.30
2018-08-03T04:30:02.447Z,23.30
2018-08-03T04:32:30.655Z,23.20
2018-08-03T04:34:58.927Z,23.20
2018-08-03T04:37:27.051Z,23.20
2018-08-03T04:39:55.344Z,23.20
2018-08-03T04:42:24.785Z,23.20
2018-08-03T04:44:52.875Z,23.20
2018-08-03T04:47:21.221Z,23.30
2018-08-03T04:49:49.365Z,23.30
2018-08-03T04:52:17.457Z,23.30
2018-08-03T04:54:45.759Z,23.40
2018-08-03T04:57:13.842Z,23.50
2018-08-03T04:59:41.996Z,23.70
2018-08-03T05:02:10.411Z,24.00
2018-08-03T05:04:38.692Z,24.60
2018-08-03T05:07:06.825Z,25.40
2018-08-03T05:09:35.037Z,26.20
2018-08-03T05:12:03.155Z,26.90
2018-08-03T05:14:31.321Z,27.40
2018-08-03T05:16:59.459Z,27.70
2018-08-03T05:19:27.767Z,27.80
2018-08-03T05:21:55.953Z,27.70
2018-08-03T05:24:24.190Z,27.90
2018-08-03T05:26:52.346Z,27.80
2018-08-03T05:29:20.495Z,27.70
2018-08-03T05:31:48.655Z,27.30
2018-08-03T05:34:16.840Z,26.90
2018-08-03T05:36:44.991Z,26.40
2018-08-03T05:39:13.141Z,26.30
2018-08-03T05:41:41.335Z,26.50
2018-08-03T05:46:37.656Z,27.30
2018-08-03T05:49:06.539Z,27.70
2018-08-03T05:51:34.907Z,28.20
2018-08-03T05:54:03.154Z,28.70
2018-08-03T05:56:31.417Z,29.10
2018-08-03T06:01:27.615Z,28.80
2018-08-03T06:03:55.835Z,28.40
2018-08-03T06:06:24.035Z,28.10
2018-08-03T06:08:52.269Z,27.90
2018-08-03T06:11:20.620Z,27.70
2018-08-03T06:13:48.735Z,27.60
2018-08-03T06:16:17.064Z,27.20
2018-08-03T06:21:13.665Z,27.00
2018-08-03T06:23:41.863Z,27.00
2018-08-03T06:26:10.147Z,27.10
2018-08-03T06:28:38.351Z,27.30
2018-08-03T06:31:06.513Z,27.70
2018-08-03T06:33:34.718Z,28.30
2018-08-03T06:36:02.959Z,28.80
2018-08-03T06:38:31.317Z,29.30
2018-08-03T06:40:59.454Z,29.80
2018-08-03T06:43:27.872Z,30.00
2018-08-03T06:45:55.996Z,29.80
2018-08-03T06:50:52.359Z,29.40
2018-08-03T06:53:20.585Z,29.40
2018-08-03T06:55:49.209Z,29.60
2018-08-03T06:58:17.449Z,29.70
2018-08-03T07:00:45.539Z,29.90
2018-08-03T07:03:13.728Z,30.00
2018-08-03T07:05:41.892Z,29.90
2018-08-03T07:08:10.122Z,29.70
2018-08-03T07:10:38.257Z,29.40
2018-08-03T07:13:06.597Z,29.40
2018-08-03T07:15:34.749Z,29.40
2018-08-03T07:18:02.885Z,29.30
2018-08-03T07:20:31.023Z,29.40
2018-08-03T07:22:59.134Z,29.50
2018-08-03T07:25:27.314Z,29.60
2018-08-03T07:27:55.451Z,29.80
2018-08-03T07:30:23.631Z,29.90
2018-08-03T07:32:51.820Z,29.60
2018-08-03T07:35:19.968Z,29.60
2018-08-03T07:37:48.138Z,29.60
2018-08-03T07:40:16.349Z,29.70
2018-08-03T07:42:44.701Z,29.80
2018-08-03T07:45:13.085Z,29.80
2018-08-03T07:47:41.263Z,29.90
2018-08-03T07:50:09.403Z,29.70
2018-08-03T07:52:37.779Z,29.60
2018-08-03T07:55:05.996Z,29.30
2018-08-03T07:57:34.241Z,29.10
2018-08-03T08:00:02.771Z,29.10
2018-08-03T08:02:30.934Z,29.20
2018-08-03T08:04:59.063Z,29.40
2018-08-03T08:07:27.271Z,29.40
2018-08-03T08:09:56.042Z,29.40
2018-08-03T08:12:24.200Z,29.40
2018-08-03T08:14:52.338Z,29.40
2018-08-03T08:17:20.558Z,29.30
2018-08-03T08:19:48.723Z,29.10
2018-08-03T08:22:16.928Z,29.10
2018-08-03T08:24:45.194Z,29.10
2018-08-03T08:27:13.349Z,29.10
2018-08-03T08:29:41.551Z,29.20
2018-08-03T08:32:09.702Z,29.20
2018-08-03T08:34:37.902Z,29.10
2018-08-03T08:37:06.397Z,29.00
2018-08-03T08:39:34.533Z,29.00
2018-08-03T08:42:04.223Z,29.00
2018-08-03T08:44:32.359Z,29.00
2018-08-03T08:47:00.533Z,29.10
2018-08-03T08:49:28.953Z,29.10
2018-08-03T08:51:57.072Z,29.10
2018-08-03T08:54:25.227Z,29.10
2018-08-03T08:56:53.350Z,29.10
2018-08-03T08:59:21.485Z,29.10
2018-08-03T09:01:49.659Z,29.00
2018-08-03T09:04:17.833Z,28.90
2018-08-03T09:06:45.994Z,29.00
2018-08-03T09:09:14.183Z,29.10
2018-08-03T09:11:42.360Z,29.10
2018-08-03T09:14:10.723Z,29.10
2018-08-03T09:19:06.776Z,29.20
2018-08-03T09:21:34.868Z,29.30
2018-08-03T09:24:03.074Z,29.30
2018-08-03T09:26:31.180Z,29.40
2018-08-03T09:28:59.394Z,29.60
2018-08-03T09:31:27.503Z,29.70
2018-08-03T09:33:55.619Z,29.80
2018-08-03T09:36:23.880Z,29.80
2018-08-03T09:38:51.997Z,29.80
2018-08-03T09:43:48.606Z,29.90
2018-08-03T09:46:16.823Z,29.90
2018-08-03T09:48:45.099Z,29.90
2018-08-03T09:51:13.225Z,29.80
2018-08-03T09:53:41.411Z,29.80
2018-08-03T09:56:09.555Z,29.80
2018-08-03T10:01:11.264Z,29.90
2018-08-03T10:03:39.891Z,29.90
2018-08-03T10:06:08.250Z,30.00
2018-08-03T10:08:37.093Z,30.10
2018-08-03T10:11:05.295Z,30.10
2018-08-03T10:13:33.612Z,30.20
2018-08-03T10:16:01.848Z,30.10
2018-08-03T10:20:58.370Z,30.10
2018-08-03T10:23:26.619Z,30.20
2018-08-03T10:25:54.807Z,30.30
2018-08-03T10:28:23.321Z,30.40
2018-08-03T10:30:51.477Z,30.40
2018-08-03T10:33:20.572Z,30.50
2018-08-03T10:38:16.902Z,30.50
2018-08-03T10:40:45.170Z,30.50
2018-08-03T10:43:13.433Z,30.60
2018-08-03T10:45:41.641Z,30.60
2018-08-03T10:48:09.857Z,30.70
2018-08-03T10:50:38.079Z,30.70
2018-08-03T10:55:34.520Z,30.80
2018-08-03T10:58:02.758Z,30.80
2018-08-03T11:00:31.855Z,30.80
2018-08-03T11:03:00.321Z,30.80
2018-08-03T11:05:29.067Z,30.70
2018-08-03T11:07:57.486Z,30.60
2018-08-03T11:10:26.431Z,30.60
2018-08-03T11:12:54.607Z,30.60
2018-08-03T11:15:22.718Z,30.60
2018-08-03T11:20:20.852Z,30.80
2018-08-03T11:22:49.063Z,30.90
2018-08-03T11:25:17.221Z,30.90
2018-08-03T11:27:45.435Z,30.90
2018-08-03T11:30:14.319Z,31.00
2018-08-03T11:32:42.607Z,30.90
2018-08-03T11:35:11.109Z,31.00
2018-08-03T11:37:39.337Z,31.00
2018-08-03T11:40:08.441Z,31.10
2018-08-03T11:42:36.603Z,31.10
2018-08-03T11:45:06.228Z,31.10
2018-08-03T11:47:34.395Z,31.10
2018-08-03T11:50:02.814Z,31.10
2018-08-03T11:52:31.091Z,31.10
2018-08-03T11:54:59.237Z,31.10
2018-08-03T11:57:27.437Z,31.30
2018-08-03T11:59:55.569Z,31.30
2018-08-03T12:02:24.226Z,31.30
2018-08-03T12:04:52.421Z,31.30
2018-08-03T12:09:48.545Z,31.30
2018-08-03T12:12:16.795Z,31.30
2018-08-03T12:14:44.973Z,31.20
2018-08-03T12:17:13.130Z,31.00
2018-08-03T12:19:41.279Z,31.10
2018-08-03T12:22:09.599Z,31.20
2018-08-03T12:24:37.734Z,31.20
2018-08-03T12:27:06.083Z,31.20
2018-08-03T12:29:34.185Z,31.30
2018-08-03T12:32:02.321Z,31.30
2018-08-03T12:34:30.473Z,31.30
2018-08-03T12:36:58.647Z,31.30
2018-08-03T12:39:26.877Z,31.20
2018-08-03T12:41:55.093Z,31.30
2018-08-03T12:44:23.269Z,31.20
2018-08-03T12:46:51.401Z,31.10
2018-08-03T12:49:19.547Z,31.20
2018-08-03T12:54:15.661Z,31.30
2018-08-03T12:56:43.820Z,31.30
2018-08-03T12:59:11.943Z,31.40
2018-08-03T13:01:40.129Z,31.40
2018-08-03T13:04:08.304Z,31.40
2018-08-03T13:06:36.482Z,31.40
2018-08-03T13:09:06.053Z,31.40
2018-08-03T13:11:34.155Z,31.50
2018-08-03T13:14:02.356Z,31.50
2018-08-03T13:18:59.005Z,31.60
2018-08-03T13:21:34.199Z,31.70
2018-08-03T13:24:02.825Z,31.80
2018-08-03T13:26:31.032Z,31.80
2018-08-03T13:28:59.642Z,31.80
2018-08-03T13:31:28.882Z,31.80
2018-08-03T13:33:57.225Z,31.60
2018-08-03T13:36:26.649Z,31.60
2018-08-03T13:38:55.032Z,31.50
2018-08-03T13:41:23.220Z,31.50
2018-08-03T13:43:52.209Z,31.60
2018-08-03T13:46:20.418Z,31.60
2018-08-03T13:48:48.968Z,31.60
2018-08-03T13:51:17.958Z,31.60
2018-08-03T13:53:46.757Z,31.60
2018-08-03T13:56:15.627Z,31.60
2018-08-03T13:58:44.775Z,31.60
2018-08-03T14:01:24.482Z,31.60
2018-08-03T14:03:52.720Z,31.60
2018-08-03T14:06:21.031Z,31.60
2018-08-03T14:08:49.767Z,31.60
2018-08-03T14:11:18.635Z,31.60
2018-08-03T14:13:47.022Z,31.70
2018-08-03T14:16:15.289Z,31.70
2018-08-03T14:18:45.381Z,31.70
2018-08-03T14:21:13.616Z,31.70
2018-08-03T14:23:41.891Z,31.80
2018-08-03T14:26:10.047Z,31.60
2018-08-03T14:28:38.217Z,31.60
2018-08-03T14:31:06.383Z,31.60
2018-08-03T14:33:34.580Z,31.70
2018-08-03T14:36:02.757Z,31.70
2018-08-03T14:38:31.089Z,31.70
2018-08-03T14:40:59.485Z,31.70
2018-08-03T14:43:27.727Z,31.70
2018-08-03T14:45:55.853Z,31.60
2018-08-03T14:48:24.038Z,31.60
2018-08-03T14:50:52.231Z,31.60
2018-08-03T14:53:20.558Z,31.50
2018-08-03T14:55:48.731Z,31.50
2018-08-03T14:58:16.995Z,31.40
2018-08-03T15:00:45.363Z,31.40
2018-08-03T15:03:13.509Z,31.40
2018-08-03T15:05:41.718Z,31.50
2018-08-03T15:08:10.035Z,31.50
2018-08-03T15:10:38.330Z,31.50
2018-08-03T15:13:06.465Z,31.60
2018-08-03T15:15:34.678Z,31.50
2018-08-03T15:18:02.838Z,31.50
2018-08-03T15:20:31.011Z,31.50
2018-08-03T15:22:59.256Z,31.50
2018-08-03T15:30:23.378Z,31.40
2018-08-03T15:32:51.502Z,31.40
2018-08-03T15:35:19.842Z,31.40
2018-08-03T15:40:16.341Z,31.40
2018-08-03T15:42:44.513Z,31.50
2018-08-03T15:45:12.828Z,31.50
2018-08-03T15:47:41.023Z,31.50
2018-08-03T15:50:09.240Z,31.50
2018-08-03T15:52:37.504Z,31.40
2018-08-03T16:00:01.592Z,31.30
2018-08-03T16:02:29.762Z,31.30
2018-08-03T16:04:57.869Z,31.30
2018-08-03T16:07:26.011Z,31.20
2018-08-03T16:09:54.277Z,31.20
2018-08-03T16:12:22.468Z,31.10
2018-08-03T16:14:50.697Z,31.10
2018-08-03T16:17:18.883Z,31.10
2018-08-03T16:22:15.477Z,31.10
2018-08-03T16:24:43.628Z,31.10
2018-08-03T16:29:39.723Z,31.00
2018-08-03T16:32:07.863Z,31.00
2018-08-03T16:37:04.252Z,30.90
2018-08-03T16:39:32.617Z,30.90
2018-08-03T16:42:00.775Z,30.80
2018-08-03T16:46:57.103Z,30.80
2018-08-03T16:49:25.407Z,30.80
2018-08-03T16:51:53.656Z,30.80
2018-08-03T16:54:21.819Z,30.70
2018-08-03T16:56:50.129Z,30.70
2018-08-03T16:59:18.207Z,30.70
2018-08-03T17:01:46.423Z,30.60
2018-08-03T17:04:14.657Z,30.60
2018-08-03T17:06:42.967Z,30.50
2018-08-03T17:09:11.418Z,30.50
2018-08-03T17:11:39.858Z,30.40
2018-08-03T17:14:07.995Z,30.40
2018-08-03T17:16:36.140Z,30.30
2018-08-03T17:19:04.319Z,30.30
2018-08-03T17:21:32.476Z,30.20
2018-08-03T17:24:00.656Z,30.20
2018-08-03T17:26:28.874Z,30.20
2018-08-03T17:28:57.161Z,30.20
2018-08-03T17:31:25.353Z,30.20
2018-08-03T17:33:53.672Z,30.20
2018-08-03T17:36:21.869Z,30.20
2018-08-03T17:38:50.203Z,30.20
2018-08-03T17:43:46.318Z,30.10
2018-08-03T17:46:14.496Z,30.10
2018-08-03T17:48:42.597Z,30.10
2018-08-03T17:51:10.769Z,30.10
2018-08-03T17:53:38.876Z,30.00
2018-08-03T17:58:35.019Z,30.00
2018-08-03T18:03:31.288Z,29.90
2018-08-03T18:05:59.423Z,30.00
2018-08-03T18:08:28.131Z,30.00
2018-08-03T18:10:56.372Z,29.90
2018-08-03T18:13:25.007Z,29.90
2018-08-03T18:15:53.185Z,29.80
2018-08-03T18:18:21.258Z,29.70
2018-08-03T18:20:49.405Z,29.60
2018-08-03T18:23:17.523Z,29.60
2018-08-03T18:25:45.921Z,29.50
2018-08-03T18:28:14.036Z,29.40
2018-08-03T18:30:42.283Z,29.30
2018-08-03T18:33:10.505Z,29.30
2018-08-03T18:35:38.688Z,29.30
2018-08-03T18:38:06.855Z,29.20
2018-08-03T18:40:35.141Z,29.10
2018-08-03T18:43:03.334Z,29.00
2018-08-03T18:45:31.535Z,29.00
2018-08-03T18:47:59.747Z,28.90
2018-08-03T18:50:28.742Z,28.90
2018-08-03T18:52:56.875Z,28.80
2018-08-03T18:55:25.037Z,28.80
2018-08-03T18:57:53.203Z,28.70
2018-08-03T19:00:21.330Z,28.70
2018-08-03T19:02:49.457Z,28.60
2018-08-03T19:05:17.600Z,28.60
2018-08-03T19:07:45.863Z,28.60
2018-08-03T19:10:14.137Z,28.50
2018-08-03T19:12:42.267Z,28.50
2018-08-03T19:15:10.727Z,28.40
2018-08-03T19:17:38.866Z,28.30
2018-08-03T19:20:07.804Z,28.30
2018-08-03T19:22:36.456Z,28.20
2018-08-03T19:25:04.910Z,28.20
2018-08-03T19:27:33.078Z,28.10
2018-08-03T19:30:01.234Z,28.10
2018-08-03T19:32:30.615Z,28.10
2018-08-03T19:34:58.756Z,28.00
2018-08-03T19:37:26.919Z,28.00
2018-08-03T19:39:55.138Z,28.00
2018-08-03T19:42:23.483Z,27.90
2018-08-03T19:44:51.678Z,27.90
2018-08-03T19:47:19.851Z,27.80
2018-08-03T19:49:48.043Z,27.80
2018-08-03T19:52:16.415Z,27.80
2018-08-03T19:54:44.698Z,27.80
2018-08-03T19:57:12.856Z,27.70
2018-08-03T19:59:41.046Z,27.70
2018-08-03T20:02:09.283Z,27.70
2018-08-03T20:04:37.640Z,27.60
2018-08-03T20:07:05.858Z,27.60
2018-08-03T20:09:34.064Z,27.50
2018-08-03T20:12:02.295Z,27.50
2018-08-03T20:14:30.646Z,27.50
2018-08-03T20:16:58.790Z,27.50
2018-08-03T20:19:26.997Z,27.40
2018-08-03T20:21:55.230Z,27.40
2018-08-03T20:24:24.304Z,27.30
2018-08-03T20:26:52.492Z,27.30
2018-08-03T20:31:48.658Z,27.20
2018-08-03T20:34:16.884Z,27.20
2018-08-03T20:36:45.370Z,27.20
2018-08-03T20:39:13.608Z,27.10
2018-08-03T20:41:41.830Z,27.10
2018-08-03T20:44:10.020Z,27.10
2018-08-03T20:46:38.308Z,27.00
2018-08-03T20:49:06.806Z,27.00
2018-08-03T20:51:34.984Z,27.00
2018-08-03T20:54:03.136Z,26.90
2018-08-03T20:56:31.310Z,26.90
2018-08-03T20:58:59.564Z,26.80
2018-08-03T21:01:27.787Z,26.80
2018-08-03T21:03:55.993Z,26.80
2018-08-03T21:08:52.241Z,26.70
2018-08-03T21:11:20.414Z,26.70
2018-08-03T21:13:48.598Z,26.70
2018-08-03T21:16:16.803Z,26.60
2018-08-03T21:18:45.063Z,26.60
2018-08-03T21:21:13.212Z,26.60
2018-08-03T21:23:41.466Z,26.50
2018-08-03T21:26:09.757Z,26.40
2018-08-03T21:28:38.043Z,26.40
2018-08-03T21:31:06.271Z,26.40
2018-08-03T21:33:34.614Z,26.40
2018-08-03T21:36:02.778Z,26.30
2018-08-03T21:38:30.983Z,26.30
2018-08-03T21:40:59.260Z,26.20
2018-08-03T21:43:27.518Z,26.20
2018-08-03T21:45:55.622Z,26.20
2018-08-03T21:48:23.723Z,26.10
2018-08-03T21:50:51.818Z,26.10
2018-08-03T21:53:19.910Z,26.10
2018-08-03T21:55:48.085Z,26.00
2018-08-03T21:58:16.208Z,26.00
2018-08-03T22:00:44.306Z,26.00
2018-08-03T22:03:12.482Z,25.90
2018-08-03T22:05:40.692Z,25.90
2018-08-03T22:08:08.912Z,25.90
2018-08-03T22:10:37.124Z,25.90
2018-08-03T22:13:05.423Z,25.80
2018-08-03T22:15:33.766Z,25.80
2018-08-03T22:18:01.977Z,25.70
2018-08-03T22:20:31.668Z,25.70
2018-08-03T22:25:27.779Z,25.60
2018-08-03T22:28:02.619Z,25.60
2018-08-03T22:30:31.004Z,25.60
2018-08-03T22:32:59.386Z,25.60
2018-08-03T22:35:27.455Z,25.60
2018-08-03T22:37:56.683Z,25.50
2018-08-03T22:40:25.079Z,25.50
2018-08-03T22:42:53.288Z,25.40
2018-08-03T22:45:21.425Z,25.40
2018-08-03T22:47:49.755Z,25.30
2018-08-03T22:50:18.284Z,25.30
2018-08-03T22:52:46.387Z,25.20
2018-08-03T22:55:14.507Z,25.20
2018-08-03T22:57:42.649Z,25.20
2018-08-03T23:00:10.949Z,25.10
2018-08-03T23:02:39.119Z,25.10
2018-08-03T23:05:07.327Z,25.10
2018-08-03T23:07:35.598Z,25.10
2018-08-03T23:10:03.835Z,25.10
2018-08-03T23:12:32.122Z,25.10
2018-08-03T23:15:00.406Z,25.10
2018-08-03T23:17:28.597Z,25.10
2018-08-03T23:19:56.919Z,25.00
2018-08-03T23:22:25.091Z,25.00
2018-08-03T23:24:53.339Z,24.90
2018-08-03T23:27:21.500Z,24.90
2018-08-03T23:29:49.733Z,24.80
2018-08-03T23:32:17.855Z,24.80
2018-08-03T23:34:45.995Z,24.80
2018-08-03T23:37:15.025Z,24.70
2018-08-03T23:39:43.196Z,24.70
2018-08-03T23:47:07.393Z,24.60
2018-08-03T23:49:35.561Z,24.50
2018-08-03T23:52:03.819Z,24.50
2018-08-03T23:54:31.942Z,24.40
2018-08-03T23:57:00.040Z,24.40
